LEAS/OVD METAR and TAF weather

Enter ICAO airport designator
Station Type Date Time Source
LEAS METAR 2019/02/23 00:30 UTC NOAA

LEAS 230030Z AUTO 24009KT 9999 NCD 14/04 Q1027


Station Type Date Time Source
LEAS Decoded METAR 2019/02/23 00:30 UTC NOAA

Asturias / Aviles, Spain (LEAS) 43-33N 006-02W 130M
Feb 22, 2019 - 07:30 PM EST / 2019.02.23 0030 UTC
Wind: from the WSW (240 degrees) at 10 MPH (9 KT):0
Visibility: greater than 7 mile(s):0
Temperature: 57 F (14 C)
Dew Point: 39 F (4 C)
Relative Humidity: 50%
Pressure (altimeter): 30.33 in. Hg (1027 hPa)
ob: LEAS 230030Z AUTO 24009KT 9999 NCD 14/04 Q1027
cycle: 0

Station Type Date Time Source
LEAS TAF 2019/02/22 21:30 UTC NOAA

TAF LEAS 222000Z 2221/2321 18006KT CAVOK TX18/2314Z TN07/2306Z PROB30 2312/2315 07010KT


Example: see airport list